Site contains unofficial IBTrACS data. Visit the IBTrACS Website to access archived data.

1922 NOT_NAMED (1922209N16117)


IBTrACS version v04r00. Visit IBTrACS website for data access.
Please direct all questions to the IBTrACS Q and A forum

Storm track - Intensity - Wind Radii - Intensity Data - Source Data - All data

Summary Information

Storm ID 1922209N16117
Start Jul 27 22Z
Landfall Jul 30 06Z, Jul 30 12Z
End Jul 30 22Z
ATCF IDs
Track status Best track data.

Storm track plot

Map of storm track

Intensity plots

No Intensity information for this storm


Radial wind information

No radial wind information for this storm


Position and Intensity Table

BASIN ISO_TIME_________ NATURE LAT LON
degrees north degrees east
WP 1922-07-27 22:00:00 NR 16.00 117.00
WP 1922-07-28 00:00:00 NR 16.06 116.62
WP 03:00:00 NR 16.15 116.04
WP 06:00:00 NR 16.30 115.46
WP 09:00:00 NR 16.51 114.89
WP 10:00:00 NR 16.60 114.70
WP 12:00:00 NR 16.81 114.32
WP 15:00:00 NR 17.19 113.77
WP 18:00:00 NR 17.60 113.26
WP 21:00:00 NR 17.98 112.83
WP 22:00:00 NR 18.10 112.70
WP 1922-07-29 00:00:00 NR 18.28 112.48
WP 03:00:00 NR 18.52 112.22
WP 06:00:00 NR 18.73 112.02
WP 09:00:00 NR 18.93 111.85
WP 10:00:00 NR 19.00 111.80
WP 12:00:00 NR 19.13 111.69
WP 15:00:00 NR 19.33 111.54
WP 18:00:00 NR 19.55 111.38
WP 21:00:00 NR 19.80 111.18
WP 22:00:00 NR 19.90 111.10
WP 1922-07-30 00:00:00 NR 20.10 110.89
WP 03:00:00 NR 20.43 110.52
WP 06:00:00 NR 20.81 110.12
WP 09:00:00 NR 21.24 109.72
WP 10:00:00 NR 21.40 109.60
WP 12:00:00 NR 21.73 109.37
WP 15:00:00 NR 22.26 109.05
WP 18:00:00 NR 22.82 108.76
WP 21:00:00 NR 23.40 108.49
WP 22:00:00 NR 23.60 108.40

Source Information

Agency Information
USA
TOKYO
CMA
HKO
NEWDELHI
REUNION
BOM
NADI
WELLINGTON
DS824
TD9636 cons_worldwide_trop_cyclone_18710101-19891231-003:Line=6649
TD9635
NEUMANN
MLC

All available IBTrACS Data

SEASON BASIN SUBBASIN ISO_TIME_________ NATURE LAT LON DIST2LAND LANDFALL IFLAG USA SSHS TD9636 LAT TD9636 LON TD9636 STAGE STORM SPEED STORM DIR
Year degrees north degrees east km km 1 degrees north degrees east kts degrees
1922 WP MM 1922-07-27 22:00:00 NR 16.00 117.00 288 288 __________O___ -1 16.00 117.00 2 11 279
1922 WP MM 1922-07-28 00:00:00 NR 16.06 116.62 331 331 __________P___ -1 16.06 116.62 2 11 279
1922 WP MM 03:00:00 NR 16.15 116.04 396 396 __________P___ -1 16.15 116.04 2 11 282
1922 WP MM 06:00:00 NR 16.30 115.46 449 460 __________P___ -1 16.30 115.46 2 12 288
1922 WP MM 09:00:00 NR 16.51 114.89 515 508 __________P___ -1 16.51 114.89 2 12 292
1922 WP MM 10:00:00 NR 16.60 114.70 508 460 __________O___ -1 16.60 114.70 7 13 299
1922 WP MM 12:00:00 NR 16.81 114.32 460 392 __________P___ -1 16.81 114.32 7 13 304
1922 WP MM 15:00:00 NR 17.19 113.77 392 324 __________P___ -1 17.19 113.77 7 13 308
1922 WP MM 18:00:00 NR 17.60 113.26 324 257 __________P___ -1 17.60 113.26 7 12 311
1922 WP MM 21:00:00 NR 17.98 112.83 257 243 __________P___ -1 17.98 112.83 7 11 313
1922 WP MM 22:00:00 NR 18.10 112.70 243 214 __________O___ -1 18.10 112.70 3 9 312
1922 WP MM 1922-07-29 00:00:00 NR 18.28 112.48 214 176 __________P___ -1 18.28 112.48 3 7 313
1922 WP MM 03:00:00 NR 18.52 112.22 176 145 __________P___ -1 18.52 112.22 3 6 316
1922 WP MM 06:00:00 NR 18.73 112.02 145 122 __________P___ -1 18.73 112.02 3 5 320
1922 WP MM 09:00:00 NR 18.93 111.85 122 107 __________P___ -1 18.93 111.85 3 5 321
1922 WP MM 10:00:00 NR 19.00 111.80 107 92 __________O___ -1 19.00 111.80 4 5 323
1922 WP MM 12:00:00 NR 19.13 111.69 92 62 __________P___ -1 19.13 111.69 4 5 324
1922 WP MM 15:00:00 NR 19.33 111.54 62 41 __________P___ -1 19.33 111.54 4 5 325
1922 WP MM 18:00:00 NR 19.55 111.38 41 23 __________P___ -1 19.55 111.38 4 6 324
1922 WP MM 21:00:00 NR 19.80 111.18 30 20 __________P___ -1 19.80 111.18 4 7 322
1922 WP MM 22:00:00 NR 19.90 111.10 20 10 __________O___ -1 19.90 111.10 2 8 317
1922 WP MM 1922-07-30 00:00:00 NR 20.10 110.89 15 10 __________P___ -1 20.10 110.89 2 9 314
1922 WP MM 03:00:00 NR 20.43 110.52 10 0 __________P___ -1 20.43 110.52 2 10 315
1922 WP MM 06:00:00 NR 20.81 110.12 0 0 __________P___ -1 20.81 110.12 2 11 318
1922 WP MM 09:00:00 NR 21.24 109.72 10 10 __________P___ -1 21.24 109.72 2 11 321
1922 WP MM 10:00:00 NR 21.40 109.60 15 0 __________O___ -1 21.40 109.60 2 12 326
1922 WP MM 12:00:00 NR 21.73 109.37 0 0 __________P___ -1 21.73 109.37 2 12 329
1922 WP MM 15:00:00 NR 22.26 109.05 0 0 __________P___ -1 22.26 109.05 2 12 333
1922 WP MM 18:00:00 NR 22.82 108.76 0 0 __________P___ -1 22.82 108.76 2 13 336
1922 WP MM 21:00:00 NR 23.40 108.49 0 0 __________P___ -1 23.40 108.49 2 13 337
1922 WP MM 22:00:00 NR 23.60 108.40 0 __________O___ -1 23.60 108.40 7 13 339